Santa Clara de Buena Vista, Argentina
Current Conditions -  °F | °C
As of 12:00 AM on Saturday 29 Nov 2014 (Local Time) from SAAR Reporting Station
Clear Clear  
Wind Chill: 23°   Ceiling: Unl
Heat Index: 23°   Visibility: 6mi
Dew Point: 17°   Wind: 8mph
Humidity: 69%   Direction: 50°NE
Pressure: 29.77"   Gusts: NA
Location:  31.76°S, 61.32°W
Report Text: SAAR 290300Z 05007KT CAVOK 23/17 Q1008
Loading
Personal Weather Stations






























Interactive Weather Map New forecast layout! Learn more

10-Day Weather Forecast

Advertisements
Track Severe Weather on mobile